Time,TemperatureF,DewpointF,PressureIn,WindDirection,WindDirectionDegrees,WindSpeedMPH,WindSpeedGustMPH,Humidity,HourlyPrecipIn,Conditions,Clouds,dailyrainin,SolarRadiationWatts/m^2,SoftwareType,DateUTC
2013-04-19 00:01:00,28.5,11.7,30.22,WSW,246,0.0,0.0,49,0.00,CLR,CLR,0.00,0.0,WeatherDisplay:10.37,2013-04-19 06:01:00,
2013-04-19 00:06:00,28.5,11.7,30.22,WSW,246,0.5,1.1,49,0.00,CLR,CLR,0.00,0.0,WeatherDisplay:10.37,2013-04-19 06:06:00,
2013-04-19 00:11:00,28.5,11.3,30.21,WSW,246,0.7,2.3,48,0.00,CLR,CLR,0.00,0.0,WeatherDisplay:10.37,2013-04-19 06:11:00,
2013-04-19 00:16:00,28.5,11.3,30.22,WSW,246,0.0,0.0,48,0.00,CLR,CLR,0.00,0.0,WeatherDisplay:10.37,2013-04-19 06:16:00,
2013-04-19 00:21:00,28.5,11.7,30.22,WSW,246,0.0,0.0,49,0.00,CLR,CLR,0.00,0.0,WeatherDisplay:10.37,2013-04-19 06:21:00,
2013-04-19 00:26:00,28.5,12.2,30.22,WSW,246,1.1,2.3,50,0.00,CLR,CLR,0.00,0.0,WeatherDisplay:10.37,2013-04-19 06:26:00,
2013-04-19 00:31:00,28.5,11.7,30.21,WSW,246,0.3,1.1,49,0.00,CLR,CLR,0.00,0.0,WeatherDisplay:10.37,2013-04-19 06:31:00,
2013-04-19 00:36:00,28.6,12.7,30.21,WSW,246,1.1,2.3,51,0.00,CLR,CLR,0.00,0.0,WeatherDisplay:10.37,2013-04-19 06:36:00,
2013-04-19 00:41:00,28.7,12.8,30.20,WSW,246,1.3,2.3,51,0.00,CLR,CLR,0.00,0.0,WeatherDisplay:10.37,2013-04-19 06:41:00,
2013-04-19 00:46:00,28.8,13.8,30.20,WSW,241,0.0,1.1,53,0.00,CLR,CLR,0.00,0.0,WeatherDisplay:10.37,2013-04-19 06:46:00,
2013-04-19 00:51:00,28.8,12.9,30.21,SW,236,0.0,0.0,51,0.00,CLR,CLR,0.00,0.0,WeatherDisplay:10.37,2013-04-19 06:51:00,
2013-04-19 00:56:00,28.8,12.9,30.20,SW,236,0.6,2.3,51,0.00,CLR,CLR,0.00,0.0,WeatherDisplay:10.37,2013-04-19 06:56:00,
2013-04-19 01:01:00,28.9,12.6,30.21,SSW,192,0.2,1.1,50,0.00,CLR,CLR,0.00,0.0,WeatherDisplay:10.37,2013-04-19 07:01:00,
2013-04-19 01:06:00,28.9,12.6,30.20,SSW,192,0.0,0.0,50,0.00,CLR,CLR,0.00,0.0,WeatherDisplay:10.37,2013-04-19 07:06:00,
2013-04-19 01:11:00,28.9,12.6,30.20,SSW,192,0.0,2.3,50,0.00,CLR,CLR,0.00,0.0,WeatherDisplay:10.37,2013-04-19 07:11:00,
2013-04-19 01:16:00,28.8,12.5,30.20,South,191,0.0,0.0,50,0.00,CLR,CLR,0.00,0.0,WeatherDisplay:10.37,2013-04-19 07:16:00,
2013-04-19 01:21:00,28.8,12.5,30.20,SSW,192,1.1,3.4,50,0.00,CLR,CLR,0.00,0.0,WeatherDisplay:10.37,2013-04-19 07:21:00,
2013-04-19 01:26:00,28.7,12.8,30.20,SSW,192,0.0,0.0,51,0.00,CLR,CLR,0.00,0.0,WeatherDisplay:10.37,2013-04-19 07:26:00,
2013-04-19 01:31:00,28.6,12.7,30.20,SSW,192,1.0,3.4,51,0.00,CLR,CLR,0.00,0.0,WeatherDisplay:10.37,2013-04-19 07:31:00,
2013-04-19 01:36:00,28.4,12.6,30.20,South,191,1.1,3.4,51,0.00,CLR,CLR,0.00,0.0,WeatherDisplay:10.37,2013-04-19 07:36:00,
2013-04-19 01:41:00,28.3,12.9,30.19,South,191,0.4,1.0,52,0.00,CLR,CLR,0.00,0.0,WeatherDisplay:10.37,2013-04-19 07:41:00,
2013-04-19 01:46:00,28.2,12.8,30.19,SSW,192,0.0,0.0,52,0.00,CLR,CLR,0.00,0.0,WeatherDisplay:10.37,2013-04-19 07:46:00,
2013-04-19 01:51:00,28.0,12.6,30.19,South,191,0.0,0.0,52,0.00,CLR,CLR,0.00,0.0,WeatherDisplay:10.37,2013-04-19 07:51:00,
2013-04-19 01:56:00,27.9,13.0,30.19,SSW,192,0.1,0.0,53,0.00,CLR,CLR,0.00,0.0,WeatherDisplay:10.37,2013-04-19 07:56:00,
2013-04-19 02:01:00,27.8,12.9,30.19,SSW,192,0.0,0.0,53,0.00,CLR,CLR,0.00,0.0,WeatherDisplay:10.37,2013-04-19 08:01:00,
2013-04-19 02:06:00,27.7,12.8,30.17,SSW,192,0.9,2.3,53,0.00,CLR,CLR,0.00,0.0,WeatherDisplay:10.37,2013-04-19 08:06:00,
2013-04-19 02:11:00,27.6,12.7,30.17,SSW,192,0.4,1.1,53,0.00,CLR,CLR,0.00,0.0,WeatherDisplay:10.37,2013-04-19 08:11:00,
2013-04-19 02:16:00,27.5,13.0,30.17,South,191,1.7,3.4,54,0.00,CLR,CLR,0.00,0.0,WeatherDisplay:10.37,2013-04-19 08:16:00,
2013-04-19 02:21:00,27.4,12.9,30.18,SSW,192,1.0,2.3,54,0.00,CLR,CLR,0.00,0.0,WeatherDisplay:10.37,2013-04-19 08:21:00,
2013-04-19 02:26:00,27.4,12.9,30.18,SSW,192,1.1,3.4,54,0.00,CLR,CLR,0.00,0.0,WeatherDisplay:10.37,2013-04-19 08:26:00,
2013-04-19 02:31:00,27.3,12.8,30.18,South,191,1.2,2.3,54,0.00,CLR,CLR,0.00,0.0,WeatherDisplay:10.37,2013-04-19 08:31:00,
2013-04-19 02:36:00,27.2,12.7,30.18,South,191,0.5,1.1,54,0.00,CLR,CLR,0.00,0.0,WeatherDisplay:10.37,2013-04-19 08:36:00,
2013-04-19 02:41:00,27.2,13.1,30.18,SSW,192,0.1,1.0,55,0.00,CLR,CLR,0.00,0.0,WeatherDisplay:10.37,2013-04-19 08:41:00,
2013-04-19 02:46:00,27.1,13.1,30.18,SSW,192,0.0,0.0,55,0.00,CLR,CLR,0.00,0.0,WeatherDisplay:10.37,2013-04-19 08:46:00,
2013-04-19 02:51:00,27.1,13.1,30.18,SSW,192,0.0,0.0,55,0.00,CLR,CLR,0.00,0.0,WeatherDisplay:10.37,2013-04-19 08:51:00,
2013-04-19 02:56:00,27.0,13.4,30.18,SSW,192,0.5,1.1,56,0.00,CLR,CLR,0.00,0.0,WeatherDisplay:10.37,2013-04-19 08:56:00,
2013-04-19 03:01:00,26.9,13.3,30.18,South,191,0.0,0.0,56,0.00,SCT,SCT,0.00,0.0,WeatherDisplay:10.37,2013-04-19 09:01:00,
2013-04-19 03:06:00,26.8,13.2,30.17,SSW,192,0.0,0.0,56,0.00,SCT,SCT,0.00,0.0,WeatherDisplay:10.37,2013-04-19 09:06:00,
2013-04-19 03:11:00,26.7,13.5,30.17,SSW,192,0.0,0.0,57,0.00,SCT,SCT,0.00,0.0,WeatherDisplay:10.37,2013-04-19 09:11:00,
2013-04-19 03:16:00,26.5,13.3,30.17,South,181,1.1,2.3,57,0.00,SCT,SCT,0.00,0.0,WeatherDisplay:10.37,2013-04-19 09:16:00,
2013-04-19 03:21:00,26.4,13.2,30.18,South,181,0.2,2.0,57,0.00,SCT,SCT,0.00,0.0,WeatherDisplay:10.37,2013-04-19 09:21:00,
2013-04-19 03:26:00,26.3,13.1,30.18,South,181,0.7,3.4,57,0.00,SCT,SCT,0.00,0.0,WeatherDisplay:10.37,2013-04-19 09:26:00,
2013-04-19 03:31:00,26.3,13.1,30.18,South,180,0.3,2.3,57,0.00,SCT,SCT,0.00,0.0,WeatherDisplay:10.37,2013-04-19 09:31:00,
2013-04-19 03:36:00,26.3,13.1,30.18,South,181,0.0,0.0,57,0.00,SCT,SCT,0.00,0.0,WeatherDisplay:10.37,2013-04-19 09:36:00,
2013-04-19 03:41:00,26.3,13.1,30.18,South,181,0.0,0.0,57,0.00,SCT,SCT,0.00,0.0,WeatherDisplay:10.37,2013-04-19 09:41:00,
2013-04-19 03:46:00,26.3,13.1,30.18,South,181,0.0,0.0,57,0.00,SCT,SCT,0.00,0.0,WeatherDisplay:10.37,2013-04-19 09:46:00,
2013-04-19 03:51:00,26.3,13.5,30.18,South,181,0.7,1.1,58,0.00,SCT,SCT,0.00,0.0,WeatherDisplay:10.37,2013-04-19 09:51:00,
2013-04-19 03:56:00,26.2,13.8,30.19,South,181,0.1,2.3,59,0.00,SCT,SCT,0.00,0.0,WeatherDisplay:10.37,2013-04-19 09:56:00,
2013-04-19 04:01:00,26.2,13.8,30.18,South,180,2.1,3.4,59,0.00,SCT,SCT,0.00,0.0,WeatherDisplay:10.37,2013-04-19 10:01:00,
2013-04-19 04:06:00,26.2,14.2,30.17,South,180,0.0,1.1,60,0.00,SCT,SCT,0.00,0.0,WeatherDisplay:10.37,2013-04-19 10:06:00,
2013-04-19 04:11:00,26.2,14.6,30.17,South,180,1.3,2.3,61,0.00,BKN,BKN,0.00,0.0,WeatherDisplay:10.37,2013-04-19 10:11:00,
2013-04-19 04:16:00,26.2,14.6,30.17,South,180,0.4,2.3,61,0.00,BKN,BKN,0.00,0.0,WeatherDisplay:10.37,2013-04-19 10:16:00,
2013-04-19 04:21:00,26.2,14.6,30.17,South,180,1.3,3.4,61,0.00,BKN,BKN,0.00,0.0,WeatherDisplay:10.37,2013-04-19 10:21:00,
2013-04-19 04:26:00,26.1,14.8,30.17,South,180,2.0,3.4,62,0.00,BKN,BKN,0.00,0.0,WeatherDisplay:10.37,2013-04-19 10:26:00,
2013-04-19 04:31:00,26.0,14.8,30.17,South,180,1.2,2.3,62,0.00,BKN,BKN,0.00,0.0,WeatherDisplay:10.37,2013-04-19 10:31:00,
2013-04-19 04:36:00,26.0,14.8,30.17,South,180,0.0,0.0,62,0.00,BKN,BKN,0.00,0.0,WeatherDisplay:10.37,2013-04-19 10:36:00,
2013-04-19 04:41:00,25.9,14.7,30.16,South,180,1.5,2.3,62,0.00,BKN,BKN,0.00,0.0,WeatherDisplay:10.37,2013-04-19 10:41:00,
2013-04-19 04:46:00,25.8,14.6,30.16,South,180,0.2,2.3,62,0.00,BKN,BKN,0.00,0.0,WeatherDisplay:10.37,2013-04-19 10:46:00,
2013-04-19 04:51:00,25.8,14.6,30.16,South,180,0.0,1.1,62,0.00,BKN,BKN,0.00,0.0,WeatherDisplay:10.37,2013-04-19 10:51:00,
2013-04-19 04:56:00,25.8,14.6,30.17,South,180,0.0,0.0,62,0.00,BKN,BKN,0.00,0.0,WeatherDisplay:10.37,2013-04-19 10:56:00,
2013-04-19 05:01:00,25.9,14.3,30.17,South,190,1.4,3.4,61,0.00,FEW,FEW,0.00,0.0,WeatherDisplay:10.37,2013-04-19 11:01:00,
2013-04-19 05:06:00,26.1,14.5,30.17,South,190,0.4,3.4,61,0.00,FEW,FEW,0.00,0.0,WeatherDisplay:10.37,2013-04-19 11:06:00,
2013-04-19 05:11:00,26.2,14.6,30.17,South,189,0.0,0.0,61,0.00,FEW,FEW,0.00,0.0,WeatherDisplay:10.37,2013-04-19 11:11:00,
2013-04-19 05:16:00,26.3,14.7,30.17,South,188,0.0,0.0,61,0.00,FEW,FEW,0.00,0.0,WeatherDisplay:10.37,2013-04-19 11:16:00,
2013-04-19 05:21:00,26.4,14.8,30.17,South,189,0.0,0.0,61,0.00,FEW,FEW,0.00,0.0,WeatherDisplay:10.37,2013-04-19 11:21:00,
2013-04-19 05:26:00,26.4,14.8,30.17,South,188,1.4,2.3,61,0.00,FEW,FEW,0.00,0.0,WeatherDisplay:10.37,2013-04-19 11:26:00,
2013-04-19 05:31:00,26.4,14.4,30.17,South,189,0.0,0.0,60,0.00,FEW,FEW,0.00,0.0,WeatherDisplay:10.37,2013-04-19 11:31:00,
2013-04-19 05:36:00,26.3,14.7,30.17,South,188,0.0,0.0,61,0.00,FEW,FEW,0.00,0.0,WeatherDisplay:10.37,2013-04-19 11:36:00,
2013-04-19 05:41:00,26.2,14.6,30.17,South,188,0.0,0.0,61,0.00,FEW,FEW,0.00,0.0,WeatherDisplay:10.37,2013-04-19 11:41:00,
2013-04-19 05:46:00,26.2,14.9,30.17,South,189,0.8,2.3,62,0.00,FEW,FEW,0.00,0.0,WeatherDisplay:10.37,2013-04-19 11:46:00,
2013-04-19 05:51:00,26.1,14.8,30.17,South,188,0.0,0.0,62,0.00,FEW,FEW,0.00,0.0,WeatherDisplay:10.37,2013-04-19 11:51:00,
2013-04-19 05:56:00,26.1,14.8,30.17,South,189,1.2,3.4,62,0.00,FEW,FEW,0.00,0.0,WeatherDisplay:10.37,2013-04-19 11:56:00,
2013-04-19 06:01:00,26.1,14.8,30.17,South,189,0.2,3.4,62,0.00,SCT,SCT,0.00,0.0,WeatherDisplay:10.37,2013-04-19 12:01:00,
2013-04-19 06:06:00,26.1,14.8,30.18,South,189,0.0,0.0,62,0.00,SCT,SCT,0.00,0.0,WeatherDisplay:10.37,2013-04-19 12:06:00,
2013-04-19 06:11:00,26.0,15.1,30.18,South,189,0.0,2.3,63,0.00,SCT,SCT,0.00,0.0,WeatherDisplay:10.37,2013-04-19 12:11:00,
2013-04-19 06:16:00,26.0,15.1,30.18,South,189,0.0,0.0,63,0.00,SCT,SCT,0.00,0.0,WeatherDisplay:10.37,2013-04-19 12:16:00,
2013-04-19 06:21:00,26.0,14.8,30.17,South,188,0.0,0.0,62,0.00,SCT,SCT,0.00,9.0,WeatherDisplay:10.37,2013-04-19 12:21:00,
2013-04-19 06:26:00,26.0,14.8,30.18,South,189,0.0,0.0,62,0.00,SCT,SCT,0.00,12.0,WeatherDisplay:10.37,2013-04-19 12:26:00,
2013-04-19 06:31:00,26.1,14.8,30.18,South,189,0.4,2.3,62,0.00,SCT,SCT,0.00,18.0,WeatherDisplay:10.37,2013-04-19 12:31:00,
2013-04-19 06:36:00,26.2,15.3,30.18,South,189,1.6,3.4,63,0.00,SCT,SCT,0.00,26.0,WeatherDisplay:10.37,2013-04-19 12:36:00,
2013-04-19 06:41:00,26.3,15.4,30.18,South,188,0.4,1.1,63,0.00,SCT,SCT,0.00,35.0,WeatherDisplay:10.37,2013-04-19 12:41:00,
2013-04-19 06:46:00,26.5,16.0,30.16,South,189,0.0,0.0,64,0.00,SCT,SCT,0.00,37.0,WeatherDisplay:10.37,2013-04-19 12:46:00,
2013-04-19 06:51:00,26.6,15.7,30.17,South,188,0.9,2.0,63,0.00,SCT,SCT,0.00,60.0,WeatherDisplay:10.37,2013-04-19 12:51:00,
2013-04-19 06:56:00,26.9,15.6,30.17,SW,221,5.3,9.2,62,0.00,SCT,SCT,0.00,72.0,WeatherDisplay:10.37,2013-04-19 12:56:00,
2013-04-19 07:01:00,27.4,15.7,30.17,SW,219,0.6,2.3,61,0.00,SCT,SCT,0.00,95.0,WeatherDisplay:10.37,2013-04-19 13:01:00,
2013-04-19 07:06:00,27.9,15.8,30.18,South,190,1.8,3.0,60,0.00,SCT,SCT,0.00,120.0,WeatherDisplay:10.37,2013-04-19 13:06:00,
2013-04-19 07:11:00,28.6,16.1,30.17,South,190,1.5,3.4,59,0.00,SCT,SCT,0.00,142.0,WeatherDisplay:10.37,2013-04-19 13:11:00,
2013-04-19 07:16:00,29.2,15.8,30.17,South,190,0.0,0.0,57,0.00,SCT,SCT,0.00,113.0,WeatherDisplay:10.37,2013-04-19 13:16:00,
2013-04-19 07:21:00,29.6,15.8,30.17,South,178,2.2,2.3,56,0.00,SCT,SCT,0.00,125.0,WeatherDisplay:10.37,2013-04-19 13:21:00,
2013-04-19 07:26:00,30.2,15.5,30.17,South,191,0.0,1.1,54,0.00,SCT,SCT,0.00,167.0,WeatherDisplay:10.37,2013-04-19 13:26:00,
2013-04-19 07:31:00,30.6,15.5,30.16,SSW,196,1.2,4.6,53,0.00,SCT,SCT,0.00,144.0,WeatherDisplay:10.37,2013-04-19 13:31:00,
2013-04-19 07:36:00,31.0,15.8,30.16,SSW,196,1.4,3.0,53,0.00,SCT,SCT,0.00,229.0,WeatherDisplay:10.37,2013-04-19 13:36:00,
2013-04-19 07:41:00,31.5,15.9,30.16,SSW,196,0.9,2.3,52,0.00,SCT,SCT,0.00,248.0,WeatherDisplay:10.37,2013-04-19 13:41:00,
2013-04-19 07:46:00,32.1,15.5,30.16,SSW,212,4.3,6.9,50,0.00,SCT,SCT,0.00,262.0,WeatherDisplay:10.37,2013-04-19 13:46:00,
2013-04-19 07:51:00,32.9,15.8,30.15,SSW,206,1.1,3.4,49,0.00,SCT,SCT,0.00,294.0,WeatherDisplay:10.37,2013-04-19 13:51:00,
2013-04-19 07:56:00,33.6,16.0,30.14,SSW,200,0.5,2.3,48,0.00,SCT,SCT,0.00,313.0,WeatherDisplay:10.37,2013-04-19 13:56:00,
2013-04-19 08:01:00,34.3,16.1,30.14,South,175,1.4,3.4,47,0.00,SCT,SCT,0.00,329.0,WeatherDisplay:10.37,2013-04-19 14:01:00,
2013-04-19 08:06:00,34.7,16.0,30.14,South,191,2.2,4.6,46,0.00,SCT,SCT,0.00,360.0,WeatherDisplay:10.37,2013-04-19 14:06:00,
2013-04-19 08:11:00,35.2,16.0,30.14,South,187,3.4,5.8,45,0.00,SCT,SCT,0.00,376.0,WeatherDisplay:10.37,2013-04-19 14:11:00,
2013-04-19 08:16:00,35.7,16.4,30.13,South,190,0.9,3.4,45,0.00,SCT,SCT,0.00,355.0,WeatherDisplay:10.37,2013-04-19 14:16:00,
2013-04-19 08:21:00,36.3,16.4,30.12,South,190,1.8,4.0,44,0.00,SCT,SCT,0.00,380.0,WeatherDisplay:10.37,2013-04-19 14:21:00,
2013-04-19 08:26:00,36.9,17.0,30.12,South,190,1.6,3.4,44,0.00,SCT,SCT,0.00,397.0,WeatherDisplay:10.37,2013-04-19 14:26:00,
2013-04-19 08:31:00,37.5,16.5,30.12,South,191,2.0,4.0,42,0.00,SCT,SCT,0.00,424.0,WeatherDisplay:10.37,2013-04-19 14:31:00,
2013-04-19 08:36:00,38.2,17.1,30.11,South,177,1.4,6.9,42,0.00,SCT,SCT,0.00,445.0,WeatherDisplay:10.37,2013-04-19 14:36:00,
2013-04-19 08:41:00,38.7,17.0,30.11,SSW,202,2.9,6.9,41,0.00,SCT,SCT,0.00,461.0,WeatherDisplay:10.37,2013-04-19 14:41:00,
2013-04-19 08:46:00,39.0,16.7,30.11,SW,221,2.2,4.6,40,0.00,SCT,SCT,0.00,482.0,WeatherDisplay:10.37,2013-04-19 14:46:00,
2013-04-19 08:51:00,39.5,18.3,30.11,South,186,0.5,3.4,42,0.00,SCT,SCT,0.00,508.0,WeatherDisplay:10.37,2013-04-19 14:51:00,
2013-04-19 08:56:00,40.1,17.7,30.09,SSW,205,0.9,3.4,40,0.00,SCT,SCT,0.00,543.0,WeatherDisplay:10.37,2013-04-19 14:56:00,
2013-04-19 09:01:00,40.6,17.5,30.09,SSW,209,0.1,3.4,39,0.00,SCT,SCT,0.00,559.0,WeatherDisplay:10.37,2013-04-19 15:01:00,
2013-04-19 09:06:00,41.2,18.1,30.09,SW,226,3.2,4.6,39,0.00,SCT,SCT,0.00,555.0,WeatherDisplay:10.37,2013-04-19 15:06:00,
2013-04-19 09:11:00,41.8,17.4,30.09,SSW,199,2.6,5.0,37,0.00,SCT,SCT,0.00,638.0,WeatherDisplay:10.37,2013-04-19 15:11:00,
2013-04-19 09:16:00,42.4,17.9,30.09,SSW,209,4.1,6.9,37,0.00,SCT,SCT,0.00,564.0,WeatherDisplay:10.37,2013-04-19 15:16:00,
2013-04-19 09:21:00,42.5,17.4,30.07,South,189,1.7,4.0,36,0.00,SCT,SCT,0.00,315.0,WeatherDisplay:10.37,2013-04-19 15:21:00,
2013-04-19 09:26:00,42.6,17.5,30.07,SSW,200,1.3,3.0,36,0.00,SCT,SCT,0.00,663.0,WeatherDisplay:10.37,2013-04-19 15:26:00,
2013-04-19 09:31:00,43.4,18.8,30.07,SW,227,3.0,4.6,37,0.00,SCT,SCT,0.00,659.0,WeatherDisplay:10.37,2013-04-19 15:31:00,
2013-04-19 09:36:00,43.8,18.5,30.08,SW,215,1.2,4.6,36,0.00,SCT,SCT,0.00,680.0,WeatherDisplay:10.37,2013-04-19 15:36:00,
2013-04-19 09:41:00,44.1,18.2,30.08,SSW,192,2.8,3.4,35,0.00,SCT,SCT,0.00,679.0,WeatherDisplay:10.37,2013-04-19 15:41:00,
2013-04-19 09:46:00,44.4,17.1,30.07,WSW,257,1.1,3.4,33,0.00,SCT,SCT,0.00,617.0,WeatherDisplay:10.37,2013-04-19 15:46:00,
2013-04-19 09:51:00,44.5,17.1,30.08,WSW,247,1.9,3.4,33,0.00,SCT,SCT,0.00,605.0,WeatherDisplay:10.37,2013-04-19 15:51:00,
2013-04-19 09:56:00,44.5,16.4,30.06,WSW,240,1.4,3.4,32,0.00,SCT,SCT,0.00,770.0,WeatherDisplay:10.37,2013-04-19 15:56:00,
2013-04-19 10:01:00,44.9,18.2,30.06,SSW,208,0.6,3.4,34,0.00,BKN,BKN,0.00,833.0,WeatherDisplay:10.37,2013-04-19 16:01:00,
2013-04-19 10:06:00,45.9,19.1,30.08,SSW,200,1.4,3.4,34,0.00,BKN,BKN,0.00,661.0,WeatherDisplay:10.37,2013-04-19 16:06:00,
2013-04-19 10:11:00,46.1,17.8,30.08,North,355,3.2,3.4,32,0.00,BKN,BKN,0.00,624.0,WeatherDisplay:10.37,2013-04-19 16:11:00,
2013-04-19 10:16:00,46.0,17.7,30.07,NNW,327,1.1,2.3,32,0.00,BKN,BKN,0.00,629.0,WeatherDisplay:10.37,2013-04-19 16:16:00,
2013-04-19 10:21:00,46.0,17.7,30.07,WSW,248,4.2,9.2,32,0.00,BKN,BKN,0.00,640.0,WeatherDisplay:10.37,2013-04-19 16:21:00,
2013-04-19 10:26:00,46.0,17.0,30.07,SW,226,1.6,5.8,31,0.00,BKN,BKN,0.00,594.0,WeatherDisplay:10.37,2013-04-19 16:26:00,
2013-04-19 10:31:00,45.8,16.8,30.07,SSW,202,0.0,1.1,31,0.00,BKN,BKN,0.00,722.0,WeatherDisplay:10.37,2013-04-19 16:31:00,
2013-04-19 10:36:00,46.4,18.1,30.07,NW,325,0.9,3.4,32,0.00,BKN,BKN,0.00,809.0,WeatherDisplay:10.37,2013-04-19 16:36:00,
2013-04-19 10:41:00,46.9,18.5,30.06,WSW,246,1.4,4.6,32,0.00,BKN,BKN,0.00,856.0,WeatherDisplay:10.37,2013-04-19 16:41:00,
2013-04-19 10:46:00,47.2,19.5,30.06,SW,223,0.1,1.1,33,0.00,BKN,BKN,0.00,698.0,WeatherDisplay:10.37,2013-04-19 16:46:00,
2013-04-19 10:51:00,47.4,18.2,30.06,SW,233,3.2,4.0,31,0.00,BKN,BKN,0.00,853.0,WeatherDisplay:10.37,2013-04-19 16:51:00,
2013-04-19 10:56:00,47.4,19.0,30.06,NNE,18,2.0,3.4,32,0.00,BKN,BKN,0.00,661.0,WeatherDisplay:10.37,2013-04-19 16:56:00,
2013-04-19 11:01:00,47.7,19.2,30.06,WSW,257,3.4,4.6,32,0.00,BKN,BKN,0.00,719.0,WeatherDisplay:10.37,2013-04-19 17:01:00,
2013-04-19 11:06:00,48.1,20.3,30.06,WNW,284,1.2,3.4,33,0.00,BKN,BKN,0.00,733.0,WeatherDisplay:10.37,2013-04-19 17:06:00,
2013-04-19 11:11:00,48.3,19.8,30.06,North,350,5.9,9.0,32,0.00,BKN,BKN,0.00,712.0,WeatherDisplay:10.37,2013-04-19 17:11:00,
2013-04-19 11:16:00,48.5,19.2,30.04,West,272,7.7,11.5,31,0.00,BKN,BKN,0.00,526.0,WeatherDisplay:10.37,2013-04-19 17:16:00,
2013-04-19 11:21:00,47.8,18.6,30.05,NW,326,6.6,16.1,31,0.00,BKN,BKN,0.00,570.0,WeatherDisplay:10.37,2013-04-19 17:21:00,
2013-04-19 11:26:00,47.5,19.1,30.05,NW,313,8.7,11.5,32,0.00,BKN,BKN,0.00,515.0,WeatherDisplay:10.37,2013-04-19 17:26:00,
2013-04-19 11:31:00,47.3,18.1,30.05,NW,309,6.9,11.5,31,0.00,BKN,BKN,0.00,425.0,WeatherDisplay:10.37,2013-04-19 17:31:00,
2013-04-19 11:36:00,47.3,18.1,30.05,NW,310,5.2,11.5,31,0.00,BKN,BKN,0.00,436.0,WeatherDisplay:10.37,2013-04-19 17:36:00,
2013-04-19 11:41:00,47.1,18.0,30.05,WNW,295,2.1,6.9,31,0.00,BKN,BKN,0.00,410.0,WeatherDisplay:10.37,2013-04-19 17:41:00,
2013-04-19 11:46:00,47.1,19.4,30.04,WNW,301,3.2,10.3,33,0.00,BKN,BKN,0.00,441.0,WeatherDisplay:10.37,2013-04-19 17:46:00,
2013-04-19 11:51:00,47.2,18.8,30.04,NW,309,9.4,11.5,32,0.00,BKN,BKN,0.00,432.0,WeatherDisplay:10.37,2013-04-19 17:51:00,
2013-04-19 11:56:00,47.1,18.7,30.04,NNW,331,7.5,11.5,32,0.00,BKN,BKN,0.00,452.0,WeatherDisplay:10.37,2013-04-19 17:56:00,
2013-04-19 12:01:00,46.9,18.5,30.04,North,5,7.3,12.6,32,0.00,BKN,BKN,0.00,448.0,WeatherDisplay:10.37,2013-04-19 18:01:00,
2013-04-19 12:06:00,46.8,18.5,30.04,NW,325,7.2,14.9,32,0.00,BKN,BKN,0.00,473.0,WeatherDisplay:10.37,2013-04-19 18:06:00,
2013-04-19 12:11:00,46.7,18.4,30.03,WNW,298,4.1,12.6,32,0.00,BKN,BKN,0.00,559.0,WeatherDisplay:10.37,2013-04-19 18:11:00,
2013-04-19 12:16:00,46.9,19.3,30.03,North,355,7.2,11.5,33,0.00,BKN,BKN,0.00,619.0,WeatherDisplay:10.37,2013-04-19 18:16:00,
2013-04-19 12:21:00,47.0,18.6,30.04,West,274,7.5,13.0,32,0.00,BKN,BKN,0.00,401.0,WeatherDisplay:10.37,2013-04-19 18:21:00,
2013-04-19 12:26:00,47.0,18.6,30.04,WNW,292,4.4,13.0,32,0.00,BKN,BKN,0.00,381.0,WeatherDisplay:10.37,2013-04-19 18:26:00,
2013-04-19 12:31:00,46.9,18.5,30.03,NW,313,9.5,14.9,32,0.00,BKN,BKN,0.00,373.0,WeatherDisplay:10.37,2013-04-19 18:31:00,
2013-04-19 12:36:00,46.8,18.5,30.03,NW,312,7.5,11.5,32,0.00,BKN,BKN,0.00,408.0,WeatherDisplay:10.37,2013-04-19 18:36:00,
2013-04-19 12:41:00,46.9,18.5,30.03,NW,326,5.3,6.9,32,0.00,BKN,BKN,0.00,403.0,WeatherDisplay:10.37,2013-04-19 18:41:00,
2013-04-19 12:46:00,47.0,18.6,30.03,WNW,296,5.4,8.1,32,0.00,BKN,BKN,0.00,387.0,WeatherDisplay:10.37,2013-04-19 18:46:00,
2013-04-19 12:51:00,47.2,18.8,30.03,NW,325,2.8,4.6,32,0.00,BKN,BKN,0.00,443.0,WeatherDisplay:10.37,2013-04-19 18:51:00,
2013-04-19 12:56:00,47.6,19.2,30.02,NW,321,1.2,5.0,32,0.00,BKN,BKN,0.00,601.0,WeatherDisplay:10.37,2013-04-19 18:56:00,
2013-04-19 13:01:00,48.1,19.6,30.02,NNW,348,3.0,4.6,32,0.00,BKN,BKN,0.00,478.0,WeatherDisplay:10.37,2013-04-19 19:01:00,
2013-04-19 13:06:00,48.5,19.2,30.02,NNW,342,7.6,13.8,31,0.00,BKN,BKN,0.00,480.0,WeatherDisplay:10.37,2013-04-19 19:06:00,
2013-04-19 13:11:00,48.6,20.0,30.02,NNW,340,4.7,9.2,32,0.00,BKN,BKN,0.00,388.0,WeatherDisplay:10.37,2013-04-19 19:11:00,
2013-04-19 13:16:00,48.7,19.4,30.02,NW,319,5.3,11.5,31,0.00,BKN,BKN,0.00,561.0,WeatherDisplay:10.37,2013-04-19 19:16:00,
2013-04-19 13:21:00,49.3,20.6,30.01,North,355,8.2,12.6,32,0.00,BKN,BKN,0.00,786.0,WeatherDisplay:10.37,2013-04-19 19:21:00,
2013-04-19 13:26:00,49.8,20.3,30.00,WNW,294,7.5,13.8,31,0.00,BKN,BKN,0.00,900.0,WeatherDisplay:10.37,2013-04-19 19:26:00,
2013-04-19 13:31:00,50.3,20.0,30.00,NNW,345,5.2,9.2,30,0.00,BKN,BKN,0.00,824.0,WeatherDisplay:10.37,2013-04-19 19:31:00,
2013-04-19 13:36:00,50.3,20.8,30.00,NW,309,3.8,11.5,31,0.00,BKN,BKN,0.00,432.0,WeatherDisplay:10.37,2013-04-19 19:36:00,
2013-04-19 13:41:00,50.4,20.9,30.00,West,265,4.9,11.5,31,0.00,BKN,BKN,0.00,415.0,WeatherDisplay:10.37,2013-04-19 19:41:00,
2013-04-19 13:46:00,50.1,19.8,30.00,NW,311,4.9,8.0,30,0.00,BKN,BKN,0.00,441.0,WeatherDisplay:10.37,2013-04-19 19:46:00,
2013-04-19 13:51:00,49.9,20.4,29.99,NW,307,4.4,9.2,31,0.00,BKN,BKN,0.00,471.0,WeatherDisplay:10.37,2013-04-19 19:51:00,
2013-04-19 13:56:00,50.0,20.5,29.99,WNW,294,3.6,11.5,31,0.00,BKN,BKN,0.00,411.0,WeatherDisplay:10.37,2013-04-19 19:56:00,
2013-04-19 14:01:00,50.4,20.9,29.99,SW,233,4.9,9.0,31,0.00,BKN,BKN,0.00,564.0,WeatherDisplay:10.37,2013-04-19 20:01:00,
2013-04-19 14:06:00,50.6,21.8,29.99,WSW,246,4.0,5.8,32,0.00,BKN,BKN,0.00,480.0,WeatherDisplay:10.37,2013-04-19 20:06:00,
2013-04-19 14:11:00,50.9,21.3,29.98,NW,304,4.3,6.9,31,0.00,BKN,BKN,0.00,610.0,WeatherDisplay:10.37,2013-04-19 20:11:00,
2013-04-19 14:16:00,51.5,21.0,29.98,WSW,244,3.5,7.0,30,0.00,BKN,BKN,0.00,752.0,WeatherDisplay:10.37,2013-04-19 20:16:00,
2013-04-19 14:21:00,52.0,20.7,29.98,WNW,290,6.3,10.3,29,0.00,BKN,BKN,0.00,1079.0,WeatherDisplay:10.37,2013-04-19 20:21:00,
2013-04-19 14:26:00,52.1,21.6,29.98,WSW,252,5.1,11.5,30,0.00,BKN,BKN,0.00,555.0,WeatherDisplay:10.37,2013-04-19 20:26:00,
2013-04-19 14:31:00,52.1,21.6,29.98,West,261,4.4,9.2,30,0.00,BKN,BKN,0.00,923.0,WeatherDisplay:10.37,2013-04-19 20:31:00,
2013-04-19 14:36:00,52.4,21.8,29.97,West,269,2.2,4.6,30,0.00,BKN,BKN,0.00,851.0,WeatherDisplay:10.37,2013-04-19 20:36:00,
2013-04-19 14:41:00,52.6,21.2,29.96,WSW,241,0.2,2.3,29,0.00,BKN,BKN,0.00,877.0,WeatherDisplay:10.37,2013-04-19 20:41:00,
2013-04-19 14:46:00,52.8,22.2,29.96,WNW,297,4.3,10.3,30,0.00,BKN,BKN,0.00,893.0,WeatherDisplay:10.37,2013-04-19 20:46:00,
2013-04-19 14:51:00,53.3,21.8,29.95,SW,227,3.0,6.9,29,0.00,BKN,BKN,0.00,995.0,WeatherDisplay:10.37,2013-04-19 20:51:00,
2013-04-19 14:56:00,54.0,23.2,29.95,WSW,241,5.1,11.0,30,0.00,BKN,BKN,0.00,865.0,WeatherDisplay:10.37,2013-04-19 20:56:00,
2013-04-19 15:01:00,54.0,21.6,29.95,West,262,3.9,6.9,28,0.00,BKN,BKN,0.00,930.0,WeatherDisplay:10.37,2013-04-19 21:01:00,
2013-04-19 15:06:00,53.8,21.4,29.94,SSW,197,5.2,10.3,28,0.00,BKN,BKN,0.00,896.0,WeatherDisplay:10.37,2013-04-19 21:06:00,
2013-04-19 15:11:00,53.8,22.2,29.94,SSW,201,2.8,6.9,29,0.00,BKN,BKN,0.00,791.0,WeatherDisplay:10.37,2013-04-19 21:11:00,
2013-04-19 15:16:00,54.0,21.6,29.94,SSW,198,3.7,5.8,28,0.00,BKN,BKN,0.00,896.0,WeatherDisplay:10.37,2013-04-19 21:16:00,
2013-04-19 15:21:00,54.0,20.7,29.94,WSW,244,1.0,6.9,27,0.00,BKN,BKN,0.00,793.0,WeatherDisplay:10.37,2013-04-19 21:21:00,
2013-04-19 15:26:00,53.4,20.2,29.94,SE,138,4.3,6.9,27,0.00,BKN,BKN,0.00,872.0,WeatherDisplay:10.37,2013-04-19 21:26:00,
2013-04-19 15:31:00,53.3,20.1,29.95,ESE,121,0.6,3.4,27,0.00,BKN,BKN,0.00,248.0,WeatherDisplay:10.37,2013-04-19 21:31:00,
2013-04-19 15:36:00,53.7,21.3,29.94,South,173,0.6,4.0,28,0.00,BKN,BKN,0.00,343.0,WeatherDisplay:10.37,2013-04-19 21:36:00,
2013-04-19 15:41:00,54.1,21.7,29.94,WSW,241,4.7,6.9,28,0.00,BKN,BKN,0.00,343.0,WeatherDisplay:10.37,2013-04-19 21:41:00,
2013-04-19 15:46:00,54.0,21.6,29.93,WSW,251,1.4,4.6,28,0.00,BKN,BKN,0.00,462.0,WeatherDisplay:10.37,2013-04-19 21:46:00,
2013-04-19 15:51:00,54.1,21.7,29.93,WNW,295,3.5,6.0,28,0.00,BKN,BKN,0.00,322.0,WeatherDisplay:10.37,2013-04-19 21:51:00,
2013-04-19 15:56:00,54.0,21.6,29.93,West,277,3.4,4.6,28,0.00,BKN,BKN,0.00,441.0,WeatherDisplay:10.37,2013-04-19 21:56:00,
2013-04-19 16:01:00,54.0,20.7,29.93,NNW,327,4.3,6.9,27,0.00,BKN,BKN,0.00,826.0,WeatherDisplay:10.37,2013-04-19 22:01:00,
2013-04-19 16:06:00,54.2,20.9,29.93,WNW,291,5.0,9.2,27,0.00,BKN,BKN,0.00,446.0,WeatherDisplay:10.37,2013-04-19 22:06:00,
2013-04-19 16:11:00,54.3,21.0,29.93,NW,321,0.4,5.8,27,0.00,BKN,BKN,0.00,503.0,WeatherDisplay:10.37,2013-04-19 22:11:00,
2013-04-19 16:16:00,54.7,21.3,29.92,WNW,293,6.0,10.0,27,0.00,BKN,BKN,0.00,287.0,WeatherDisplay:10.37,2013-04-19 22:16:00,
2013-04-19 16:21:00,54.5,21.2,29.93,WNW,294,3.7,6.9,27,0.00,BKN,BKN,0.00,529.0,WeatherDisplay:10.37,2013-04-19 22:21:00,
2013-04-19 16:26:00,54.6,22.1,29.93,NNW,328,3.3,3.4,28,0.00,BKN,BKN,0.00,323.0,WeatherDisplay:10.37,2013-04-19 22:26:00,
2013-04-19 16:31:00,54.6,21.2,29.92,WNW,288,1.9,4.6,27,0.00,BKN,BKN,0.00,237.0,WeatherDisplay:10.37,2013-04-19 22:31:00,
2013-04-19 16:36:00,54.1,20.8,29.92,WNW,290,3.1,6.9,27,0.00,BKN,BKN,0.00,230.0,WeatherDisplay:10.37,2013-04-19 22:36:00,
2013-04-19 16:41:00,53.7,20.5,29.92,WNW,298,0.6,4.6,27,0.00,BKN,BKN,0.00,221.0,WeatherDisplay:10.37,2013-04-19 22:41:00,
2013-04-19 16:46:00,53.3,21.0,29.93,NW,315,0.2,3.4,28,0.00,BKN,BKN,0.00,223.0,WeatherDisplay:10.37,2013-04-19 22:46:00,
2013-04-19 16:51:00,53.3,21.0,29.93,NW,307,1.5,3.4,28,0.00,BKN,BKN,0.00,211.0,WeatherDisplay:10.37,2013-04-19 22:51:00,
2013-04-19 16:56:00,53.3,21.0,29.93,West,277,1.0,3.4,28,0.00,BKN,BKN,0.00,220.0,WeatherDisplay:10.37,2013-04-19 22:56:00,
2013-04-19 17:01:00,53.2,20.9,29.93,WNW,290,3.2,3.4,28,0.00,BKN,BKN,0.00,223.0,WeatherDisplay:10.37,2013-04-19 23:01:00,
2013-04-19 17:06:00,53.2,20.0,29.93,NW,306,3.4,4.6,27,0.00,BKN,BKN,0.00,218.0,WeatherDisplay:10.37,2013-04-19 23:06:00,
2013-04-19 17:11:00,53.0,20.7,29.93,WNW,296,1.4,3.4,28,0.00,BKN,BKN,0.00,234.0,WeatherDisplay:10.37,2013-04-19 23:11:00,
2013-04-19 17:16:00,52.9,20.6,29.93,WNW,290,3.6,6.0,28,0.00,BKN,BKN,0.00,239.0,WeatherDisplay:10.37,2013-04-19 23:16:00,
2013-04-19 17:21:00,52.8,20.5,29.93,WNW,298,4.0,4.6,28,0.00,BKN,BKN,0.00,292.0,WeatherDisplay:10.37,2013-04-19 23:21:00,
2013-04-19 17:26:00,52.8,21.4,29.93,WNW,298,0.0,1.0,29,0.00,BKN,BKN,0.00,406.0,WeatherDisplay:10.37,2013-04-19 23:26:00,
2013-04-19 17:31:00,53.1,20.0,29.93,WNW,300,1.2,3.4,27,0.00,BKN,BKN,0.00,200.0,WeatherDisplay:10.37,2013-04-19 23:31:00,
2013-04-19 17:36:00,53.2,20.9,29.93,WNW,300,0.2,2.3,28,0.00,BKN,BKN,0.00,255.0,WeatherDisplay:10.37,2013-04-19 23:36:00,
2013-04-19 17:41:00,53.3,21.0,29.93,NW,306,1.6,3.4,28,0.00,BKN,BKN,0.00,281.0,WeatherDisplay:10.37,2013-04-19 23:41:00,
2013-04-19 17:46:00,53.4,21.1,29.93,WNW,293,0.0,2.3,28,0.00,BKN,BKN,0.00,183.0,WeatherDisplay:10.37,2013-04-19 23:46:00,
2013-04-19 17:51:00,53.4,21.1,29.93,WNW,293,0.9,2.3,28,0.00,BKN,BKN,0.00,200.0,WeatherDisplay:10.37,2013-04-19 23:51:00,
2013-04-19 17:56:00,53.4,20.2,29.92,WNW,300,0.5,3.4,27,0.00,BKN,BKN,0.00,153.0,WeatherDisplay:10.37,2013-04-19 23:56:00,
2013-04-19 18:01:00,53.3,21.0,29.93,WNW,292,3.0,4.6,28,0.00,BKN,BKN,0.00,134.0,WeatherDisplay:10.37,2013-04-20 00:01:00,
2013-04-19 18:06:00,53.1,20.8,29.91,WNW,290,0.7,2.3,28,0.00,BKN,BKN,0.00,113.0,WeatherDisplay:10.37,2013-04-20 00:06:00,
2013-04-19 18:11:00,52.9,20.6,29.92,WNW,290,0.0,0.0,28,0.00,BKN,BKN,0.00,105.0,WeatherDisplay:10.37,2013-04-20 00:11:00,
2013-04-19 18:16:00,52.8,21.4,29.91,WNW,290,0.6,1.1,29,0.00,BKN,BKN,0.00,91.0,WeatherDisplay:10.37,2013-04-20 00:16:00,
2013-04-19 18:21:00,52.7,21.3,29.91,WNW,290,2.1,3.4,29,0.00,BKN,BKN,0.00,79.0,WeatherDisplay:10.37,2013-04-20 00:21:00,
2013-04-19 18:26:00,52.5,21.1,29.91,WNW,290,0.4,2.0,29,0.00,BKN,BKN,0.00,70.0,WeatherDisplay:10.37,2013-04-20 00:26:00,
2013-04-19 18:31:00,52.3,20.9,29.91,WNW,290,0.0,1.1,29,0.00,BKN,BKN,0.00,62.0,WeatherDisplay:10.37,2013-04-20 00:31:00,
2013-04-19 18:36:00,52.1,20.8,29.91,WNW,290,0.0,0.0,29,0.00,BKN,BKN,0.00,49.0,WeatherDisplay:10.37,2013-04-20 00:36:00,
2013-04-19 18:41:00,52.0,20.7,29.91,WNW,290,0.0,0.0,29,0.00,BKN,BKN,0.00,42.0,WeatherDisplay:10.37,2013-04-20 00:41:00,
2013-04-19 18:46:00,51.9,20.6,29.91,WNW,290,0.0,0.0,29,0.00,BKN,BKN,0.00,39.0,WeatherDisplay:10.37,2013-04-20 00:46:00,
2013-04-19 18:51:00,51.8,21.3,29.91,WNW,290,0.0,0.0,30,0.00,BKN,BKN,0.00,33.0,WeatherDisplay:10.37,2013-04-20 00:51:00,
2013-04-19 18:56:00,51.5,21.0,29.91,WNW,290,0.0,1.1,30,0.00,BKN,BKN,0.00,30.0,WeatherDisplay:10.37,2013-04-20 00:56:00,
2013-04-19 19:01:00,51.3,21.6,29.92,WNW,290,0.0,0.0,31,0.00,BKN,BKN,0.00,26.0,WeatherDisplay:10.37,2013-04-20 01:01:00,
2013-04-19 19:06:00,51.1,21.5,29.88,WNW,290,0.0,0.0,31,0.00,BKN,BKN,0.00,40.0,WeatherDisplay:10.37,2013-04-20 01:06:00,
2013-04-19 19:11:00,50.9,21.3,29.88,WNW,290,0.0,1.1,31,0.00,BKN,BKN,0.00,25.0,WeatherDisplay:10.37,2013-04-20 01:11:00,
2013-04-19 19:16:00,50.8,22.0,29.88,WNW,290,0.8,2.3,32,0.00,BKN,BKN,0.00,12.0,WeatherDisplay:10.37,2013-04-20 01:16:00,
2013-04-19 19:21:00,50.6,21.8,29.88,WNW,290,0.6,2.3,32,0.00,BKN,BKN,0.00,9.0,WeatherDisplay:10.37,2013-04-20 01:21:00,
2013-04-19 19:26:00,50.4,22.3,29.88,WNW,290,0.3,1.1,33,0.00,BKN,BKN,0.00,7.0,WeatherDisplay:10.37,2013-04-20 01:26:00,
2013-04-19 19:31:00,50.2,22.2,29.88,WNW,290,1.6,3.4,33,0.00,BKN,BKN,0.00,5.0,WeatherDisplay:10.37,2013-04-20 01:31:00,
2013-04-19 19:36:00,50.0,22.0,29.89,WNW,290,0.0,0.0,33,0.00,BKN,BKN,0.00,0.0,WeatherDisplay:10.37,2013-04-20 01:36:00,
2013-04-19 19:41:00,49.9,22.6,29.88,WNW,290,0.3,2.3,34,0.00,BKN,BKN,0.00,0.0,WeatherDisplay:10.37,2013-04-20 01:41:00,
2013-04-19 19:46:00,49.7,23.1,29.89,WNW,290,0.0,1.0,35,0.00,BKN,BKN,0.00,0.0,WeatherDisplay:10.37,2013-04-20 01:46:00,
2013-04-19 19:51:00,49.5,22.9,29.89,WNW,290,0.0,0.0,35,0.00,BKN,BKN,0.00,0.0,WeatherDisplay:10.37,2013-04-20 01:51:00,
2013-04-19 19:56:00,49.4,22.9,29.90,WNW,290,0.0,0.0,35,0.00,BKN,BKN,0.00,0.0,WeatherDisplay:10.37,2013-04-20 01:56:00,
2013-04-19 20:01:00,49.2,22.7,29.90,WNW,290,0.0,0.0,35,0.00,BKN,BKN,0.00,0.0,WeatherDisplay:10.37,2013-04-20 02:01:00,
2013-04-19 20:06:00,49.1,22.6,29.86,WNW,290,0.0,0.0,35,0.00,BKN,BKN,0.00,0.0,WeatherDisplay:10.37,2013-04-20 02:06:00,
2013-04-19 20:11:00,48.8,23.0,29.86,WNW,290,0.0,1.1,36,0.00,BKN,BKN,0.00,0.0,WeatherDisplay:10.37,2013-04-20 02:11:00,
2013-04-19 20:16:00,48.7,22.9,29.86,WNW,290,0.0,0.0,36,0.00,BKN,BKN,0.00,0.0,WeatherDisplay:10.37,2013-04-20 02:16:00,
2013-04-19 20:21:00,48.5,24.0,29.86,WNW,290,0.9,2.3,38,0.00,BKN,BKN,0.00,0.0,WeatherDisplay:10.37,2013-04-20 02:21:00,
2013-04-19 20:26:00,48.3,23.2,29.87,WNW,290,0.0,0.0,37,0.00,BKN,BKN,0.00,0.0,WeatherDisplay:10.37,2013-04-20 02:26:00,
2013-04-19 20:31:00,48.2,23.7,29.87,WNW,290,0.0,0.0,38,0.00,BKN,BKN,0.00,0.0,WeatherDisplay:10.37,2013-04-20 02:31:00,
2013-04-19 20:36:00,48.1,24.3,29.88,WNW,290,0.0,0.0,39,0.00,BKN,BKN,0.00,0.0,WeatherDisplay:10.37,2013-04-20 02:36:00,
2013-04-19 20:41:00,47.9,22.2,29.88,WNW,290,0.0,0.0,36,0.00,BKN,BKN,0.00,0.0,WeatherDisplay:10.37,2013-04-20 02:41:00,
2013-04-19 20:46:00,47.8,22.1,29.88,WNW,290,0.0,2.3,36,0.00,BKN,BKN,0.00,0.0,WeatherDisplay:10.37,2013-04-20 02:46:00,
2013-04-19 20:51:00,47.9,22.2,29.88,WNW,290,1.5,3.4,36,0.00,BKN,BKN,0.00,0.0,WeatherDisplay:10.37,2013-04-20 02:51:00,
2013-04-19 20:56:00,48.0,21.6,29.88,WNW,289,3.3,5.8,35,0.00,BKN,BKN,0.00,0.0,WeatherDisplay:10.37,2013-04-20 02:56:00,
2013-04-19 21:01:00,48.2,21.8,29.88,WNW,293,0.9,3.4,35,0.00,BKN,BKN,0.00,0.0,WeatherDisplay:10.37,2013-04-20 03:01:00,
2013-04-19 21:06:00,48.4,22.0,29.86,WNW,293,0.0,0.0,35,0.00,BKN,BKN,0.00,0.0,WeatherDisplay:10.37,2013-04-20 03:06:00,
2013-04-19 21:11:00,48.5,22.7,29.85,WNW,292,0.4,1.0,36,0.00,BKN,BKN,0.00,0.0,WeatherDisplay:10.37,2013-04-20 03:11:00,
2013-04-19 21:16:00,48.5,22.7,29.85,WNW,293,0.0,0.0,36,0.00,BKN,BKN,0.00,0.0,WeatherDisplay:10.37,2013-04-20 03:16:00,
2013-04-19 21:21:00,48.4,23.3,29.86,WNW,293,0.0,0.0,37,0.00,BKN,BKN,0.00,0.0,WeatherDisplay:10.37,2013-04-20 03:21:00,
2013-04-19 21:26:00,48.3,23.2,29.87,WNW,293,0.0,0.0,37,0.00,BKN,BKN,0.00,0.0,WeatherDisplay:10.37,2013-04-20 03:26:00,
2013-04-19 21:31:00,48.2,23.7,29.87,WNW,293,0.0,0.0,38,0.00,BKN,BKN,0.00,0.0,WeatherDisplay:10.37,2013-04-20 03:31:00,
2013-04-19 21:36:00,48.1,24.9,29.87,WNW,292,0.0,0.0,40,0.00,BKN,BKN,0.00,0.0,WeatherDisplay:10.37,2013-04-20 03:36:00,
2013-04-19 21:41:00,47.8,24.0,29.87,WNW,293,0.9,2.3,39,0.00,BKN,BKN,0.00,0.0,WeatherDisplay:10.37,2013-04-20 03:41:00,
2013-04-19 21:46:00,47.5,23.7,29.87,SSW,194,2.0,3.4,39,0.00,BKN,BKN,0.00,0.0,WeatherDisplay:10.37,2013-04-20 03:46:00,
2013-04-19 21:51:00,47.3,24.2,29.87,SSW,194,0.3,1.1,40,0.00,BKN,BKN,0.00,0.0,WeatherDisplay:10.37,2013-04-20 03:51:00,
2013-04-19 21:56:00,47.2,24.1,29.87,SSW,194,1.2,2.3,40,0.00,BKN,BKN,0.00,0.0,WeatherDisplay:10.37,2013-04-20 03:56:00,
2013-04-19 22:01:00,47.1,24.0,29.87,SSW,194,0.0,0.0,40,0.00,BKN,BKN,0.00,0.0,WeatherDisplay:10.37,2013-04-20 04:01:00,
2013-04-19 22:06:00,47.0,23.9,29.86,SSW,194,0.0,1.1,40,0.00,BKN,BKN,0.00,0.0,WeatherDisplay:10.37,2013-04-20 04:06:00,
2013-04-19 22:11:00,46.9,23.8,29.86,SSW,194,0.0,1.1,40,0.00,BKN,BKN,0.00,0.0,WeatherDisplay:10.37,2013-04-20 04:11:00,
2013-04-19 22:16:00,46.9,23.8,29.85,SSW,194,0.0,0.0,40,0.00,BKN,BKN,0.00,0.0,WeatherDisplay:10.37,2013-04-20 04:16:00,
2013-04-19 22:21:00,46.9,24.4,29.85,SSW,194,0.0,0.0,41,0.00,BKN,BKN,0.00,0.0,WeatherDisplay:10.37,2013-04-20 04:21:00,
2013-04-19 22:26:00,46.8,23.7,29.86,SSW,194,0.0,0.0,40,0.00,BKN,BKN,0.00,0.0,WeatherDisplay:10.37,2013-04-20 04:26:00,
2013-04-19 22:31:00,46.7,23.6,29.85,SSW,194,0.0,0.0,40,0.00,BKN,BKN,0.00,0.0,WeatherDisplay:10.37,2013-04-20 04:31:00,
2013-04-19 22:36:00,46.7,23.0,29.85,SSW,194,0.0,0.0,39,0.00,BKN,BKN,0.00,0.0,WeatherDisplay:10.37,2013-04-20 04:36:00,
2013-04-19 22:41:00,46.7,23.0,29.85,SSW,194,0.0,0.0,39,0.00,BKN,BKN,0.00,0.0,WeatherDisplay:10.37,2013-04-20 04:41:00,
2013-04-19 22:46:00,46.5,24.6,29.85,SSW,194,0.8,2.3,42,0.00,BKN,BKN,0.00,0.0,WeatherDisplay:10.37,2013-04-20 04:46:00,
2013-04-19 22:51:00,46.4,23.9,29.85,SSW,194,0.9,2.3,41,0.00,BKN,BKN,0.00,0.0,WeatherDisplay:10.37,2013-04-20 04:51:00,
2013-04-19 22:56:00,46.3,24.4,29.85,SSW,194,0.0,0.0,42,0.00,BKN,BKN,0.00,0.0,WeatherDisplay:10.37,2013-04-20 04:56:00,
2013-04-19 23:01:00,46.2,24.3,29.85,SSW,194,0.0,0.0,42,0.00,BKN,BKN,0.00,0.0,WeatherDisplay:10.37,2013-04-20 05:01:00,
2013-04-19 23:06:00,46.2,24.3,29.86,SSW,194,0.0,0.0,42,0.00,BKN,BKN,0.00,0.0,WeatherDisplay:10.37,2013-04-20 05:06:00,
2013-04-19 23:11:00,46.1,24.8,29.86,SSW,194,0.0,0.0,43,0.00,BKN,BKN,0.00,0.0,WeatherDisplay:10.37,2013-04-20 05:11:00,
2013-04-19 23:16:00,46.1,24.8,29.86,SSW,194,0.0,0.0,43,0.00,BKN,BKN,0.00,0.0,WeatherDisplay:10.37,2013-04-20 05:16:00,
2013-04-19 23:21:00,46.0,25.3,29.86,SSW,194,0.7,1.1,44,0.00,BKN,BKN,0.00,0.0,WeatherDisplay:10.37,2013-04-20 05:21:00,
2013-04-19 23:26:00,45.9,25.7,29.86,SSW,194,1.1,2.3,45,0.00,BKN,BKN,0.00,0.0,WeatherDisplay:10.37,2013-04-20 05:26:00,
2013-04-19 23:31:00,45.9,25.7,29.86,SSW,194,0.0,0.0,45,0.00,BKN,BKN,0.00,0.0,WeatherDisplay:10.37,2013-04-20 05:31:00,
2013-04-19 23:36:00,45.8,25.6,29.86,SSW,194,0.0,0.0,45,0.00,BKN,BKN,0.00,0.0,WeatherDisplay:10.37,2013-04-20 05:36:00,
2013-04-19 23:41:00,45.8,26.2,29.86,SSW,194,0.5,2.3,46,0.00,BKN,BKN,0.00,0.0,WeatherDisplay:10.37,2013-04-20 05:41:00,
2013-04-19 23:46:00,45.7,26.6,29.86,South,173,3.1,3.4,47,0.00,BKN,BKN,0.00,0.0,WeatherDisplay:10.37,2013-04-20 05:46:00,
2013-04-19 23:51:00,45.6,26.5,29.86,South,173,1.2,3.4,47,0.00,BKN,BKN,0.00,0.0,WeatherDisplay:10.37,2013-04-20 05:51:00,
2013-04-19 23:56:00,45.7,26.6,29.86,SSE,157,0.0,1.0,47,0.00,BKN,BKN,0.00,0.0,WeatherDisplay:10.37,2013-04-20 05:56:00,